LIBN/LCC METAR and TAF weather

Enter ICAO airport designator
Station Type Date Time Source
LIBN METAR 2019/06/17 11:55 UTC NOAA

LIBN 171155Z 33004KT 9999 FEW030 30/20 Q1012


Station Type Date Time Source
LIBN Decoded METAR 2019/06/17 11:55 UTC NOAA

Lecce, Italy (LIBN) 40-14N 018-09E 61M
Jun 17, 2019 - 07:55 AM EDT / 2019.06.17 1155 UTC
Wind: from the NNW (330 degrees) at 5 MPH (4 KT):0
Visibility: greater than 7 mile(s):0
Sky conditions: mostly clear
Temperature: 86 F (30 C)
Dew Point: 68 F (20 C)
Relative Humidity: 55%
Pressure (altimeter): 29.88 in. Hg (1012 hPa)
ob: LIBN 171155Z 33004KT 9999 FEW030 30/20 Q1012
cycle: 12

Station Type Date Time Source
LIBN TAF 2019/06/11 09:24 UTC NOAA

TAF TAF LIBN 110800Z 1109/1121 25011KT CAVOK

Example: see airport list